createdAt,value
2018-04-08T00:00:10.766Z,11.90
2018-04-08T00:02:38.237Z,11.90
2018-04-08T00:05:05.718Z,11.80
2018-04-08T00:07:33.219Z,11.80
2018-04-08T00:10:00.755Z,11.70
2018-04-08T00:12:28.994Z,11.70
2018-04-08T00:14:56.517Z,11.70
2018-04-08T00:17:24.766Z,11.50
2018-04-08T00:19:52.242Z,11.50
2018-04-08T00:22:19.746Z,11.60
2018-04-08T00:24:48.033Z,11.40
2018-04-08T00:27:16.284Z,11.40
2018-04-08T00:29:43.757Z,11.30
2018-04-08T00:32:11.269Z,11.30
2018-04-08T00:34:39.510Z,11.40
2018-04-08T00:37:07.026Z,11.30
2018-04-08T00:39:35.290Z,11.60
2018-04-08T00:42:02.761Z,11.60
2018-04-08T00:44:30.263Z,11.70
2018-04-08T00:46:58.505Z,12.00
2018-04-08T00:49:26.007Z,12.00
2018-04-08T00:51:53.505Z,12.30
2018-04-08T00:54:30.582Z,12.10
2018-04-08T00:56:58.857Z,12.10
2018-04-08T00:59:26.329Z,12.10
2018-04-08T01:01:53.834Z,12.10
2018-04-08T01:04:21.364Z,12.10
2018-04-08T01:06:48.851Z,12.10
2018-04-08T01:09:17.098Z,12.00
2018-04-08T01:11:44.600Z,11.90
2018-04-08T01:14:12.072Z,11.70
2018-04-08T01:16:39.580Z,11.70
2018-04-08T01:19:07.071Z,11.60
2018-04-08T01:21:34.578Z,11.50
2018-04-08T01:24:02.822Z,11.50
2018-04-08T01:26:30.338Z,11.50
2018-04-08T01:28:57.823Z,11.50
2018-04-08T01:31:26.065Z,11.30
2018-04-08T01:33:53.564Z,11.30
2018-04-08T01:36:21.055Z,11.20
2018-04-08T01:38:49.319Z,11.10
2018-04-08T01:41:16.797Z,11.10
2018-04-08T01:43:44.303Z,11.20
2018-04-08T01:46:11.784Z,11.30
2018-04-08T01:48:39.284Z,11.20
2018-04-08T01:51:06.755Z,11.60
2018-04-08T01:53:34.257Z,11.60
2018-04-08T01:56:01.729Z,11.90
2018-04-08T01:58:29.290Z,11.90
2018-04-08T02:00:56.769Z,11.90
2018-04-08T02:03:24.249Z,11.90
2018-04-08T02:05:52.505Z,11.90
2018-04-08T02:08:19.982Z,11.90
2018-04-08T02:10:47.501Z,12.00
2018-04-08T02:13:15.004Z,12.20
2018-04-08T02:15:42.502Z,12.00
2018-04-08T02:18:09.974Z,11.80
2018-04-08T02:20:37.478Z,11.70
2018-04-08T02:23:04.994Z,11.60
2018-04-08T02:25:32.466Z,11.40
2018-04-08T02:27:59.946Z,11.20
2018-04-08T02:30:27.473Z,11.20
2018-04-08T02:32:54.960Z,11.20
2018-04-08T02:35:22.430Z,11.20
2018-04-08T02:37:49.926Z,11.20
2018-04-08T02:40:17.429Z,11.20
2018-04-08T02:42:45.683Z,11.50
2018-04-08T02:45:13.182Z,11.50
2018-04-08T02:47:41.462Z,11.70
2018-04-08T02:50:08.956Z,11.70
2018-04-08T02:52:36.458Z,11.60
2018-04-08T02:55:03.949Z,11.50
2018-04-08T02:57:31.437Z,11.40
2018-04-08T02:59:58.953Z,11.40
2018-04-08T03:02:26.435Z,11.40
2018-04-08T03:04:53.935Z,11.50
2018-04-08T03:07:21.456Z,11.60
2018-04-08T03:09:48.952Z,11.70
2018-04-08T03:12:16.473Z,11.70
2018-04-08T03:14:43.975Z,11.70
2018-04-08T03:17:11.504Z,11.70
2018-04-08T03:19:38.983Z,11.60
2018-04-08T03:22:06.500Z,11.50
2018-04-08T03:24:34.072Z,11.40
2018-04-08T03:27:01.550Z,11.30
2018-04-08T03:29:29.050Z,11.30
2018-04-08T03:31:56.526Z,11.30
2018-04-08T03:34:24.078Z,11.30
2018-04-08T03:36:51.591Z,11.40
2018-04-08T03:39:19.838Z,11.40
2018-04-08T03:41:47.339Z,11.40
2018-04-08T03:44:14.818Z,11.40
2018-04-08T03:46:43.086Z,11.40
2018-04-08T03:49:10.586Z,11.40
2018-04-08T03:51:38.829Z,11.50
2018-04-08T03:54:06.320Z,11.50
2018-04-08T03:56:33.822Z,11.60
2018-04-08T03:59:01.293Z,11.60
2018-04-08T04:01:29.553Z,11.60
2018-04-08T04:03:57.810Z,11.50
2018-04-08T04:06:25.339Z,11.50
2018-04-08T04:08:53.584Z,11.20
2018-04-08T04:11:21.104Z,11.20
2018-04-08T04:13:48.633Z,11.10
2018-04-08T04:16:16.308Z,11.20
2018-04-08T04:18:55.570Z,11.20
2018-04-08T04:21:34.798Z,11.20
2018-04-08T04:24:13.947Z,11.10
2018-04-08T04:26:41.445Z,11.10
2018-04-08T04:29:09.718Z,11.40
2018-04-08T04:31:37.226Z,11.40
2018-04-08T04:34:04.763Z,11.30
2018-04-08T04:36:32.246Z,11.10
2018-04-08T04:38:59.745Z,11.00
2018-04-08T04:41:27.245Z,10.90
2018-04-08T04:43:54.748Z,10.90
2018-04-08T04:46:22.235Z,10.90
2018-04-08T04:48:50.500Z,10.80
2018-04-08T04:51:18.023Z,10.80
2018-04-08T04:53:46.225Z,10.70
2018-04-08T04:56:13.726Z,10.70
2018-04-08T04:58:41.201Z,10.70
2018-04-08T05:01:08.715Z,10.50
2018-04-08T05:03:36.330Z,10.50
2018-04-08T05:06:03.835Z,10.50
2018-04-08T05:08:32.111Z,10.80
2018-04-08T05:10:59.593Z,10.70
2018-04-08T05:13:27.866Z,10.70
2018-04-08T05:15:55.342Z,10.70
2018-04-08T05:18:22.829Z,10.70
2018-04-08T05:20:51.062Z,10.70
2018-04-08T05:23:18.570Z,10.60
2018-04-08T05:25:46.053Z,10.70
2018-04-08T05:28:14.291Z,10.70
2018-04-08T05:30:41.793Z,10.70
2018-04-08T05:33:09.291Z,10.90
2018-04-08T05:35:37.573Z,10.70
2018-04-08T05:38:05.821Z,10.80
2018-04-08T05:40:33.303Z,10.80
2018-04-08T05:43:00.834Z,10.70
2018-04-08T05:45:28.316Z,10.70
2018-04-08T05:47:55.850Z,10.70
2018-04-08T05:50:24.094Z,10.70
2018-04-08T05:52:51.569Z,10.70
2018-04-08T05:55:19.075Z,10.70
2018-04-08T05:57:47.366Z,10.90
2018-04-08T06:00:15.606Z,11.00
2018-04-08T06:02:43.089Z,11.00
2018-04-08T06:05:10.596Z,11.00
2018-04-08T06:07:38.874Z,11.00
2018-04-08T06:10:06.432Z,11.00
2018-04-08T06:12:33.872Z,11.00
2018-04-08T06:15:01.374Z,11.00
2018-04-08T06:17:28.919Z,11.10
2018-04-08T06:19:56.416Z,11.20
2018-04-08T06:22:23.914Z,11.20
2018-04-08T06:24:52.182Z,11.30
2018-04-08T06:27:19.686Z,11.30
2018-04-08T06:29:47.161Z,11.30
2018-04-08T06:32:14.657Z,11.30
2018-04-08T06:34:42.186Z,11.40
2018-04-08T06:37:10.426Z,11.60
2018-04-08T06:39:37.926Z,11.60
2018-04-08T06:42:05.427Z,11.70
2018-04-08T06:44:32.941Z,12.00
2018-04-08T06:47:00.513Z,12.00
2018-04-08T06:49:28.034Z,12.30
2018-04-08T06:51:55.482Z,12.30
2018-04-08T06:54:22.980Z,12.30
2018-04-08T06:56:50.446Z,12.40
2018-04-08T06:59:17.942Z,12.30
2018-04-08T07:01:45.448Z,12.30
2018-04-08T07:04:12.965Z,12.40
2018-04-08T07:06:40.434Z,12.40
2018-04-08T07:09:07.980Z,12.40
2018-04-08T07:11:36.290Z,12.40
2018-04-08T07:14:03.757Z,12.40
2018-04-08T07:16:31.241Z,12.50
2018-04-08T07:18:58.765Z,12.50
2018-04-08T07:21:26.243Z,12.50
2018-04-08T07:23:53.730Z,12.60
2018-04-08T07:26:21.977Z,12.80
2018-04-08T07:28:49.477Z,12.80
2018-04-08T07:31:16.955Z,12.90
2018-04-08T07:33:45.209Z,13.10
2018-04-08T07:36:12.697Z,13.10
2018-04-08T07:38:40.189Z,13.20
2018-04-08T07:41:08.450Z,13.30
2018-04-08T07:43:35.937Z,13.30
2018-04-08T07:46:03.415Z,13.40
2018-04-08T07:48:31.679Z,13.60
2018-04-08T07:50:59.229Z,13.50
2018-04-08T07:53:26.736Z,13.60
2018-04-08T07:55:54.986Z,13.50
2018-04-08T07:58:22.502Z,13.50
2018-04-08T08:00:49.981Z,13.50
2018-04-08T08:03:17.469Z,13.50
2018-04-08T08:05:44.983Z,13.60
2018-04-08T08:08:12.466Z,13.60
2018-04-08T08:10:39.962Z,13.70
2018-04-08T08:13:07.456Z,13.80
2018-04-08T08:15:34.970Z,13.90
2018-04-08T08:18:02.446Z,14.30
2018-04-08T08:20:29.925Z,14.30
2018-04-08T08:22:57.412Z,14.40
2018-04-08T08:25:25.658Z,14.40
2018-04-08T08:27:53.155Z,14.40
2018-04-08T08:30:20.634Z,14.60
2018-04-08T08:32:48.905Z,14.90
2018-04-08T08:35:16.375Z,14.90
2018-04-08T08:37:44.629Z,15.10
2018-04-08T08:40:12.145Z,15.10
2018-04-08T08:42:40.389Z,15.50
2018-04-08T08:45:07.881Z,15.50
2018-04-08T08:47:35.358Z,15.60
2018-04-08T08:50:02.854Z,15.60
2018-04-08T08:52:31.105Z,15.80
2018-04-08T08:54:58.810Z,15.80
2018-04-08T08:57:27.066Z,16.20
2018-04-08T08:59:54.542Z,16.20
2018-04-08T09:02:22.026Z,16.40
2018-04-08T09:04:49.508Z,16.60
2018-04-08T09:07:17.029Z,16.80
2018-04-08T09:09:44.498Z,17.00
2018-04-08T09:12:11.990Z,17.20
2018-04-08T09:14:39.478Z,17.50
2018-04-08T09:17:06.988Z,17.70
2018-04-08T09:19:40.044Z,17.80
2018-04-08T09:22:13.070Z,18.00
2018-04-08T09:27:41.285Z,18.40
2018-04-08T09:30:08.780Z,18.50
2018-04-08T09:32:36.257Z,18.60
2018-04-08T09:35:03.730Z,18.60
2018-04-08T09:37:31.249Z,18.80
2018-04-08T09:39:58.743Z,19.00
2018-04-08T09:42:27.006Z,19.10
2018-04-08T09:44:54.478Z,19.00
2018-04-08T09:47:21.982Z,19.10
2018-04-08T09:49:50.235Z,19.30
2018-04-08T09:52:17.702Z,19.30
2018-04-08T09:54:45.197Z,19.50
2018-04-08T09:57:12.686Z,19.70
2018-04-08T09:59:40.942Z,19.80
2018-04-08T10:02:14.219Z,19.70
2018-04-08T10:04:41.720Z,19.80
2018-04-08T10:07:09.195Z,19.90
2018-04-08T10:09:36.683Z,20.00
2018-04-08T10:12:04.979Z,19.90
2018-04-08T10:14:32.436Z,19.90
2018-04-08T10:16:59.914Z,20.00
2018-04-08T10:19:28.146Z,20.10
2018-04-08T10:21:55.629Z,20.10
2018-04-08T10:24:23.102Z,20.10
2018-04-08T10:26:50.598Z,20.00
2018-04-08T10:29:18.116Z,20.10
2018-04-08T10:31:46.342Z,20.40
2018-04-08T10:34:13.823Z,20.40
2018-04-08T10:36:41.327Z,20.40
2018-04-08T10:39:08.811Z,20.60
2018-04-08T10:41:36.282Z,20.60
2018-04-08T10:44:03.766Z,20.70
2018-04-08T10:46:31.242Z,20.80
2018-04-08T10:48:58.737Z,20.80
2018-04-08T10:51:26.214Z,20.90
2018-04-08T10:53:53.706Z,20.90
2018-04-08T10:56:21.944Z,21.00
2018-04-08T10:58:49.447Z,21.00
2018-04-08T11:01:16.926Z,20.90
2018-04-08T11:03:45.171Z,21.00
2018-04-08T11:06:12.658Z,21.00
2018-04-08T11:08:40.134Z,21.00
2018-04-08T11:11:07.655Z,21.10
2018-04-08T11:13:35.126Z,21.30
2018-04-08T11:16:02.618Z,21.20
2018-04-08T11:18:30.094Z,21.30
2018-04-08T11:20:57.606Z,21.50
2018-04-08T11:23:25.082Z,21.60
2018-04-08T11:25:53.326Z,21.80
2018-04-08T11:28:20.822Z,21.80
2018-04-08T11:30:48.300Z,21.80
2018-04-08T11:33:15.807Z,21.50
2018-04-08T11:35:43.298Z,21.40
2018-04-08T11:38:10.787Z,21.50
2018-04-08T11:40:38.258Z,21.60
2018-04-08T11:43:05.779Z,21.70
2018-04-08T11:45:34.044Z,21.60
2018-04-08T11:48:02.290Z,21.50
2018-04-08T11:50:29.777Z,21.50
2018-04-08T11:52:57.270Z,21.40
2018-04-08T11:55:24.762Z,21.40
2018-04-08T11:57:53.002Z,21.50
2018-04-08T12:00:20.502Z,21.50
2018-04-08T12:02:47.980Z,21.60
2018-04-08T12:05:16.267Z,22.00
2018-04-08T12:07:43.746Z,21.90
2018-04-08T12:10:11.990Z,22.00
2018-04-08T12:12:39.506Z,22.00
2018-04-08T12:15:07.780Z,22.10
2018-04-08T12:17:36.037Z,22.10
2018-04-08T12:20:03.518Z,22.10
2018-04-08T12:22:31.010Z,22.20
2018-04-08T12:24:58.481Z,22.20
2018-04-08T12:27:25.994Z,22.20
2018-04-08T12:29:53.462Z,22.00
2018-04-08T12:32:20.942Z,22.00
2018-04-08T12:34:48.443Z,22.00
2018-04-08T12:37:15.936Z,21.90
2018-04-08T12:39:43.486Z,21.90
2018-04-08T12:42:10.961Z,22.10
2018-04-08T12:44:38.453Z,22.30
2018-04-08T12:47:06.694Z,22.10
2018-04-08T12:49:34.195Z,22.00
2018-04-08T12:52:01.666Z,22.30
2018-04-08T12:54:29.149Z,22.50
2018-04-08T12:56:56.657Z,22.50
2018-04-08T12:59:24.133Z,22.70
2018-04-08T13:01:51.621Z,22.60
2018-04-08T13:04:19.469Z,22.60
2018-04-08T13:06:46.962Z,22.60
2018-04-08T13:09:14.434Z,22.50
2018-04-08T13:11:41.914Z,22.50
2018-04-08T13:14:09.429Z,22.60
2018-04-08T13:16:36.906Z,22.40
2018-04-08T13:19:05.157Z,22.30
2018-04-08T13:21:32.644Z,22.30
2018-04-08T13:24:00.138Z,22.40
2018-04-08T13:26:27.652Z,22.60
2018-04-08T13:28:55.162Z,22.70
2018-04-08T13:31:22.639Z,22.70
2018-04-08T13:33:50.893Z,22.70
2018-04-08T13:36:18.394Z,22.60
2018-04-08T13:38:45.877Z,22.50
2018-04-08T13:41:14.134Z,22.70
2018-04-08T13:43:41.609Z,22.70
2018-04-08T13:46:09.101Z,22.80
2018-04-08T13:48:37.338Z,22.70
2018-04-08T13:51:04.849Z,22.70
2018-04-08T13:53:32.327Z,22.70
2018-04-08T13:56:00.569Z,22.70
2018-04-08T13:58:28.061Z,22.70
2018-04-08T14:00:55.538Z,22.80
2018-04-08T14:03:23.030Z,22.90
2018-04-08T14:05:51.279Z,23.00
2018-04-08T14:08:18.786Z,23.00
2018-04-08T14:10:46.258Z,23.00
2018-04-08T14:13:14.513Z,23.20
2018-04-08T14:15:42.014Z,23.20
2018-04-08T14:18:09.567Z,23.30
2018-04-08T14:20:37.032Z,23.30
2018-04-08T14:23:04.510Z,23.30
2018-04-08T14:25:32.006Z,23.30
2018-04-08T14:28:00.238Z,23.10
2018-04-08T14:30:27.732Z,23.10
2018-04-08T14:32:55.216Z,23.10
2018-04-08T14:35:22.690Z,23.20
2018-04-08T14:37:50.201Z,23.00
2018-04-08T14:40:17.683Z,23.20
2018-04-08T14:42:45.174Z,23.20
2018-04-08T14:45:13.424Z,23.30
2018-04-08T14:47:40.926Z,23.30
2018-04-08T14:50:08.394Z,23.30
2018-04-08T14:52:35.889Z,23.30
2018-04-08T14:55:03.389Z,23.40
2018-04-08T14:57:31.643Z,23.50
2018-04-08T14:59:59.138Z,23.40
2018-04-08T15:02:27.394Z,23.50
2018-04-08T15:04:54.907Z,23.50
2018-04-08T15:07:23.158Z,23.70
2018-04-08T15:09:50.657Z,23.70
2018-04-08T15:12:18.157Z,23.70
2018-04-08T15:14:45.972Z,23.60
2018-04-08T15:17:13.445Z,23.50
2018-04-08T15:19:40.926Z,23.60
2018-04-08T15:22:08.428Z,23.60
2018-04-08T15:24:36.666Z,23.40
2018-04-08T15:27:04.166Z,23.40
2018-04-08T15:29:31.641Z,23.40
2018-04-08T15:31:59.138Z,23.40
2018-04-08T15:34:26.631Z,23.40
2018-04-08T15:36:54.130Z,23.10
2018-04-08T15:39:21.601Z,23.20
2018-04-08T15:41:49.080Z,23.20
2018-04-08T15:44:16.567Z,23.30
2018-04-08T15:46:44.046Z,23.30
2018-04-08T15:49:12.304Z,23.20
2018-04-08T15:51:39.838Z,23.20
2018-04-08T15:54:07.349Z,23.20
2018-04-08T15:56:34.844Z,23.20
2018-04-08T15:59:02.321Z,23.00
2018-04-08T16:01:30.578Z,22.90
2018-04-08T16:03:58.058Z,22.90
2018-04-08T16:06:25.546Z,22.90
2018-04-08T16:08:53.025Z,23.10
2018-04-08T16:11:21.286Z,23.10
2018-04-08T16:13:48.765Z,23.10
2018-04-08T16:16:16.234Z,23.20
2018-04-08T16:18:43.723Z,23.20
2018-04-08T16:21:11.970Z,23.10
2018-04-08T16:23:39.463Z,23.10
2018-04-08T16:26:06.954Z,23.00
2018-04-08T16:28:35.229Z,23.00
2018-04-08T16:31:03.500Z,23.00
2018-04-08T16:33:30.987Z,22.90
2018-04-08T16:35:58.469Z,22.80
2018-04-08T16:38:26.715Z,22.70
2018-04-08T16:40:54.222Z,22.70
2018-04-08T16:43:21.709Z,22.70
2018-04-08T16:45:49.974Z,22.70
2018-04-08T16:48:17.450Z,22.60
2018-04-08T16:50:44.944Z,22.60
2018-04-08T16:53:13.183Z,22.60
2018-04-08T16:55:40.686Z,22.60
2018-04-08T16:58:08.926Z,22.40
2018-04-08T17:00:36.396Z,22.40
2018-04-08T17:03:03.886Z,22.40
2018-04-08T17:05:32.134Z,22.30
2018-04-08T17:07:59.632Z,22.30
2018-04-08T17:10:27.674Z,22.30
2018-04-08T17:12:56.030Z,22.20
2018-04-08T17:15:23.510Z,22.20
2018-04-08T17:17:51.010Z,22.20
2018-04-08T17:20:18.494Z,22.10
2018-04-08T17:22:45.969Z,22.20
2018-04-08T17:25:13.476Z,22.10
2018-04-08T17:27:40.950Z,22.10
2018-04-08T17:30:08.449Z,22.10
2018-04-08T17:32:36.710Z,21.90
2018-04-08T17:35:04.203Z,21.90
2018-04-08T17:37:32.449Z,21.80
2018-04-08T17:39:59.958Z,21.80
2018-04-08T17:42:28.234Z,21.70
2018-04-08T17:44:55.718Z,21.70
2018-04-08T17:47:23.980Z,21.30
2018-04-08T17:49:51.458Z,21.30
2018-04-08T17:52:18.953Z,21.20
2018-04-08T17:54:47.217Z,21.00
2018-04-08T17:57:14.705Z,21.00
2018-04-08T17:59:42.182Z,20.80
2018-04-08T18:02:10.421Z,20.80
2018-04-08T18:04:37.927Z,20.70
2018-04-08T18:07:05.409Z,20.60
2018-04-08T18:09:33.666Z,20.40
2018-04-08T18:12:01.146Z,20.40
2018-04-08T18:14:28.641Z,20.30
2018-04-08T18:16:56.891Z,20.10
2018-04-08T18:19:24.443Z,20.10
2018-04-08T18:21:51.950Z,20.00
2018-04-08T18:24:19.478Z,19.90
2018-04-08T18:26:47.719Z,19.90
2018-04-08T18:29:15.982Z,19.70
2018-04-08T18:31:43.501Z,19.70
2018-04-08T18:34:11.745Z,19.60
2018-04-08T18:36:39.237Z,19.60
2018-04-08T18:39:06.766Z,19.50
2018-04-08T18:41:34.227Z,19.50
2018-04-08T18:44:01.718Z,19.40
2018-04-08T18:46:29.202Z,19.40
2018-04-08T18:48:56.695Z,19.30
2018-04-08T18:51:24.207Z,19.10
2018-04-08T18:53:51.695Z,19.00
2018-04-08T18:56:19.171Z,19.00
2018-04-08T18:58:46.677Z,18.90
2018-04-08T19:01:14.171Z,18.80
2018-04-08T19:03:42.454Z,18.80
2018-04-08T19:06:10.700Z,18.70
2018-04-08T19:08:38.182Z,18.70
2018-04-08T19:11:05.670Z,18.60
2018-04-08T19:13:33.919Z,18.50
2018-04-08T19:16:01.420Z,18.50
2018-04-08T19:18:28.917Z,18.50
2018-04-08T19:20:57.173Z,18.40
2018-04-08T19:23:24.651Z,18.40
2018-04-08T19:25:52.142Z,18.40
2018-04-08T19:28:20.385Z,18.40
2018-04-08T19:30:47.882Z,18.40
2018-04-08T19:33:15.372Z,18.30
2018-04-08T19:35:43.631Z,18.20
2018-04-08T19:38:11.128Z,18.20
2018-04-08T19:40:39.394Z,18.20
2018-04-08T19:43:06.873Z,18.10
2018-04-08T19:45:34.359Z,18.10
2018-04-08T19:48:02.626Z,18.00
2018-04-08T19:50:30.106Z,18.00
2018-04-08T19:52:58.374Z,17.90
2018-04-08T19:55:25.846Z,17.90
2018-04-08T19:57:53.342Z,17.90
2018-04-08T20:00:21.584Z,17.90
2018-04-08T20:02:49.071Z,17.80
2018-04-08T20:05:16.571Z,17.90
2018-04-08T20:07:44.809Z,17.70
2018-04-08T20:10:12.309Z,17.70
2018-04-08T20:12:39.791Z,17.60
2018-04-08T20:15:08.054Z,17.50
2018-04-08T20:17:35.532Z,17.50
2018-04-08T20:20:03.010Z,17.50
2018-04-08T20:22:30.507Z,17.50
2018-04-08T20:24:58.934Z,17.30
2018-04-08T20:27:26.444Z,17.30
2018-04-08T20:29:53.918Z,17.40
2018-04-08T20:32:21.419Z,17.40
2018-04-08T20:34:49.662Z,17.20
2018-04-08T20:37:17.149Z,17.20
2018-04-08T20:39:44.658Z,17.20
2018-04-08T20:42:12.273Z,17.00
2018-04-08T20:44:39.790Z,17.00
2018-04-08T20:47:08.033Z,16.80
2018-04-08T20:49:35.545Z,16.80
2018-04-08T20:52:03.794Z,16.80
2018-04-08T20:54:31.280Z,16.70
2018-04-08T20:56:58.784Z,16.60
2018-04-08T20:59:26.262Z,16.60
2018-04-08T21:01:53.754Z,16.50
2018-04-08T21:04:21.231Z,16.50
2018-04-08T21:06:48.730Z,16.40
2018-04-08T21:09:16.214Z,16.30
2018-04-08T21:11:43.684Z,16.20
2018-04-08T21:14:11.182Z,16.00
2018-04-08T21:16:39.526Z,15.90
2018-04-08T21:19:07.017Z,15.90
2018-04-08T21:21:35.270Z,15.70
2018-04-08T21:24:02.778Z,15.60
2018-04-08T21:26:31.023Z,15.60
2018-04-08T21:28:58.502Z,15.50
2018-04-08T21:31:25.998Z,15.50
2018-04-08T21:33:53.474Z,15.50
2018-04-08T21:36:21.733Z,15.40
2018-04-08T21:38:49.210Z,15.40
2018-04-08T21:41:16.703Z,15.30
2018-04-08T21:43:44.954Z,15.20
2018-04-08T21:46:12.460Z,15.20
2018-04-08T21:48:39.959Z,15.20
2018-04-08T21:51:07.439Z,15.20
2018-04-08T21:53:34.943Z,15.10
2018-04-08T21:56:02.450Z,15.00
2018-04-08T21:58:30.722Z,14.90
2018-04-08T22:00:58.194Z,14.80
2018-04-08T22:03:25.696Z,14.80
2018-04-08T22:05:53.176Z,14.60
2018-04-08T22:08:20.680Z,14.50
2018-04-08T22:10:48.166Z,14.50
2018-04-08T22:13:15.662Z,14.50
2018-04-08T22:15:43.914Z,14.40
2018-04-08T22:18:11.413Z,14.40
2018-04-08T22:20:38.899Z,14.30
2018-04-08T22:23:07.194Z,14.20
2018-04-08T22:25:35.434Z,14.10
2018-04-08T22:28:02.921Z,14.10
2018-04-08T22:30:30.434Z,13.90
2018-04-08T22:32:57.906Z,13.90
2018-04-08T22:35:25.410Z,13.80
2018-04-08T22:37:52.908Z,13.80
2018-04-08T22:40:20.409Z,13.80
2018-04-08T22:42:47.887Z,13.70
2018-04-08T22:45:15.390Z,13.60
2018-04-08T22:47:42.872Z,13.60
2018-04-08T22:50:10.378Z,13.40
2018-04-08T22:52:38.627Z,13.10
2018-04-08T22:55:06.139Z,13.10
2018-04-08T22:57:34.414Z,13.10
2018-04-08T23:00:01.898Z,13.00
2018-04-08T23:02:30.186Z,13.10
2018-04-08T23:04:58.425Z,13.10
2018-04-08T23:07:25.902Z,13.00
2018-04-08T23:09:53.406Z,13.00
2018-04-08T23:12:21.671Z,12.80
2018-04-08T23:14:49.174Z,12.80
2018-04-08T23:17:17.415Z,12.80
2018-04-08T23:22:18.786Z,12.80
2018-04-08T23:24:46.287Z,13.00
2018-04-08T23:27:13.790Z,12.90
2018-04-08T23:29:42.074Z,12.70
2018-04-08T23:32:09.550Z,12.70
2018-04-08T23:34:37.827Z,12.40
2018-04-08T23:37:05.304Z,12.40
2018-04-08T23:39:32.805Z,12.30
2018-04-08T23:42:00.310Z,12.30
2018-04-08T23:44:28.151Z,12.30
2018-04-08T23:46:55.650Z,12.20
2018-04-08T23:49:23.160Z,12.20
2018-04-08T23:51:50.670Z,12.30
2018-04-08T23:54:18.142Z,12.40
2018-04-08T23:56:45.622Z,12.40
2018-04-08T23:59:13.134Z,12.10
